createdAt,value
2018-05-13T00:00:11.529Z,19.98
2018-05-13T00:01:11.553Z,20.24
2018-05-13T00:02:11.578Z,20.05
2018-05-13T00:03:11.601Z,19.91
2018-05-13T00:04:11.632Z,19.78
2018-05-13T00:05:11.667Z,19.78
2018-05-13T00:06:11.688Z,19.78
2018-05-13T00:07:11.704Z,19.58
2018-05-13T00:08:11.738Z,19.63
2018-05-13T00:09:11.779Z,19.66
2018-05-13T00:10:11.799Z,19.66
2018-05-13T00:11:11.814Z,19.84
2018-05-13T00:12:11.887Z,19.90
2018-05-13T00:13:11.859Z,19.69
2018-05-13T00:14:11.885Z,19.76
2018-05-13T00:15:11.917Z,19.84
2018-05-13T00:16:11.942Z,19.83
2018-05-13T00:17:11.981Z,19.83
2018-05-13T00:18:11.996Z,19.88
2018-05-13T00:19:12.020Z,19.88
2018-05-13T00:20:12.044Z,19.78
2018-05-13T00:21:12.080Z,19.76
2018-05-13T00:22:12.097Z,19.66
2018-05-13T00:23:12.121Z,19.46
2018-05-13T00:24:12.147Z,19.61
2018-05-13T00:25:12.178Z,19.65
2018-05-13T00:26:12.224Z,19.61
2018-05-13T00:27:12.227Z,19.51
2018-05-13T00:28:12.244Z,19.66
2018-05-13T00:29:12.276Z,19.69
2018-05-13T00:30:12.297Z,19.70
2018-05-13T00:31:12.326Z,19.73
2018-05-13T00:32:12.353Z,19.76
2018-05-13T00:33:12.370Z,19.69
2018-05-13T00:34:12.412Z,19.79
2018-05-13T00:35:12.436Z,19.88
2018-05-13T00:36:12.454Z,19.73
2018-05-13T00:37:12.482Z,19.76
2018-05-13T00:38:12.514Z,19.75
2018-05-13T00:39:12.535Z,19.79
2018-05-13T00:40:12.561Z,19.63
2018-05-13T00:41:12.590Z,19.61
2018-05-13T00:42:12.611Z,19.66
2018-05-13T00:43:12.635Z,19.63
2018-05-13T00:44:12.657Z,19.63
2018-05-13T00:45:12.689Z,19.73
2018-05-13T00:46:12.711Z,19.72
2018-05-13T00:47:12.736Z,19.73
2018-05-13T00:48:12.759Z,19.65
2018-05-13T00:49:12.785Z,19.66
2018-05-13T00:50:12.820Z,19.68
2018-05-13T00:51:12.847Z,19.57
2018-05-13T00:52:12.882Z,19.57
2018-05-13T00:53:12.890Z,19.66
2018-05-13T00:54:12.919Z,19.63
2018-05-13T00:55:12.938Z,19.51
2018-05-13T00:56:12.964Z,19.69
2018-05-13T00:57:13.060Z,19.63
2018-05-13T00:58:13.037Z,19.47
2018-05-13T00:59:13.042Z,19.36
2018-05-13T01:00:13.070Z,19.21
2018-05-13T01:01:13.098Z,19.25
2018-05-13T01:02:13.129Z,19.20
2018-05-13T01:03:13.163Z,19.28
2018-05-13T01:04:13.174Z,19.43
2018-05-13T01:05:13.215Z,19.28
2018-05-13T01:06:13.231Z,19.35
2018-05-13T01:07:13.260Z,19.29
2018-05-13T01:08:13.275Z,19.32
2018-05-13T01:09:13.305Z,19.28
2018-05-13T01:10:13.322Z,19.32
2018-05-13T01:11:13.358Z,19.32
2018-05-13T01:12:13.375Z,19.39
2018-05-13T01:13:13.405Z,19.50
2018-05-13T01:14:13.437Z,19.46
2018-05-13T01:15:13.486Z,19.46
2018-05-13T01:16:13.533Z,19.46
2018-05-13T01:17:13.604Z,19.47
2018-05-13T01:18:13.528Z,19.38
2018-05-13T01:19:13.559Z,19.23
2018-05-13T01:20:13.578Z,19.17
2018-05-13T01:21:13.622Z,19.15
2018-05-13T01:22:13.629Z,19.21
2018-05-13T01:23:13.660Z,19.14
2018-05-13T01:24:13.685Z,19.05
2018-05-13T01:25:13.727Z,18.97
2018-05-13T01:26:13.730Z,19.08
2018-05-13T01:27:13.760Z,19.08
2018-05-13T01:28:13.784Z,19.15
2018-05-13T01:29:13.815Z,19.28
2018-05-13T01:30:13.866Z,19.11
2018-05-13T01:31:13.859Z,19.17
2018-05-13T01:32:13.896Z,19.28
2018-05-13T01:33:13.925Z,19.08
2018-05-13T01:34:13.944Z,19.13
2018-05-13T01:35:13.977Z,19.20
2018-05-13T01:36:14.015Z,18.99
2018-05-13T01:37:14.013Z,18.97
2018-05-13T01:38:14.038Z,18.87
2018-05-13T01:39:14.066Z,18.98
2018-05-13T01:40:14.093Z,19.08
2018-05-13T01:41:14.119Z,18.97
2018-05-13T01:42:14.135Z,19.17
2018-05-13T01:43:14.166Z,19.13
2018-05-13T01:44:14.195Z,19.13
2018-05-13T01:45:14.226Z,19.11
2018-05-13T01:46:14.245Z,18.94
2018-05-13T01:47:14.266Z,18.95
2018-05-13T01:48:14.312Z,18.98
2018-05-13T01:49:14.316Z,19.06
2018-05-13T01:50:14.343Z,18.98
2018-05-13T01:51:14.369Z,18.97
2018-05-13T01:52:14.396Z,18.82
2018-05-13T01:53:14.422Z,19.02
2018-05-13T01:54:14.443Z,18.82
2018-05-13T01:55:14.471Z,18.73
2018-05-13T01:56:14.504Z,18.86
2018-05-13T01:57:14.531Z,18.62
2018-05-13T01:58:14.545Z,18.36
2018-05-13T01:59:14.571Z,18.47
2018-05-13T02:00:14.611Z,18.59
2018-05-13T02:01:14.691Z,18.62
2018-05-13T02:02:14.642Z,18.55
2018-05-13T02:03:14.676Z,18.67
2018-05-13T02:04:14.699Z,18.64
2018-05-13T02:05:14.728Z,18.52
2018-05-13T02:06:14.750Z,18.44
2018-05-13T02:07:14.775Z,18.59
2018-05-13T02:08:14.801Z,18.67
2018-05-13T02:09:14.823Z,18.55
2018-05-13T02:10:14.844Z,18.44
2018-05-13T02:11:14.874Z,18.34
2018-05-13T02:12:14.901Z,18.37
2018-05-13T02:13:14.929Z,18.43
2018-05-13T02:14:14.949Z,18.55
2018-05-13T02:15:14.980Z,18.34
2018-05-13T02:16:14.997Z,18.44
2018-05-13T02:17:15.028Z,18.54
2018-05-13T02:18:15.051Z,18.46
2018-05-13T02:19:15.073Z,18.49
2018-05-13T02:20:15.101Z,18.46
2018-05-13T02:21:15.125Z,18.28
2018-05-13T02:22:15.150Z,18.50
2018-05-13T02:23:15.177Z,18.52
2018-05-13T02:24:15.208Z,18.55
2018-05-13T02:25:15.223Z,18.52
2018-05-13T02:26:15.251Z,18.52
2018-05-13T02:27:15.270Z,18.61
2018-05-13T02:28:15.303Z,18.67
2018-05-13T02:29:15.328Z,18.61
2018-05-13T02:30:15.349Z,18.54
2018-05-13T02:31:15.376Z,18.34
2018-05-13T02:32:15.410Z,18.21
2018-05-13T02:33:15.432Z,18.28
2018-05-13T02:34:15.445Z,18.36
2018-05-13T02:35:15.487Z,18.46
2018-05-13T02:36:15.498Z,18.52
2018-05-13T02:37:15.528Z,18.22
2018-05-13T02:38:15.563Z,18.54
2018-05-13T02:39:15.570Z,18.44
2018-05-13T02:40:15.609Z,18.46
2018-05-13T02:41:15.627Z,18.17
2018-05-13T02:42:15.644Z,18.12
2018-05-13T02:43:15.671Z,18.42
2018-05-13T02:44:15.696Z,18.44
2018-05-13T02:45:15.721Z,18.34
2018-05-13T02:46:15.750Z,18.21
2018-05-13T02:47:15.779Z,18.21
2018-05-13T02:48:15.797Z,18.15
2018-05-13T02:49:15.820Z,18.37
2018-05-13T02:50:15.845Z,18.42
2018-05-13T02:51:15.871Z,18.40
2018-05-13T02:52:15.916Z,18.42
2018-05-13T02:53:15.919Z,18.29
2018-05-13T02:54:15.947Z,18.10
2018-05-13T02:55:15.971Z,18.06
2018-05-13T02:56:16.001Z,18.21
2018-05-13T02:57:16.021Z,18.12
2018-05-13T02:58:16.043Z,17.95
2018-05-13T02:59:16.070Z,18.09
2018-05-13T03:00:16.094Z,17.95
2018-05-13T03:01:16.129Z,18.10
2018-05-13T03:02:16.143Z,18.03
2018-05-13T03:03:16.165Z,18.17
2018-05-13T03:04:16.193Z,18.34
2018-05-13T03:05:16.221Z,18.39
2018-05-13T03:06:16.247Z,18.22
2018-05-13T03:07:16.268Z,18.34
2018-05-13T03:08:16.300Z,18.36
2018-05-13T03:09:16.317Z,18.31
2018-05-13T03:10:16.343Z,18.36
2018-05-13T03:11:16.366Z,18.29
2018-05-13T03:12:16.391Z,18.25
2018-05-13T03:13:16.416Z,18.37
2018-05-13T03:14:16.435Z,18.18
2018-05-13T03:15:16.486Z,17.99
2018-05-13T03:16:16.490Z,18.13
2018-05-13T03:17:16.509Z,18.34
2018-05-13T03:18:16.550Z,18.19
2018-05-13T03:19:16.564Z,18.22
2018-05-13T03:20:16.589Z,18.12
2018-05-13T03:21:16.611Z,18.06
2018-05-13T03:22:16.638Z,18.17
2018-05-13T03:23:16.659Z,18.33
2018-05-13T03:24:16.685Z,18.29
2018-05-13T03:25:16.710Z,18.19
2018-05-13T03:26:16.739Z,17.84
2018-05-13T03:27:16.764Z,17.95
2018-05-13T03:28:16.787Z,17.99
2018-05-13T03:29:16.806Z,18.04
2018-05-13T03:30:16.844Z,18.12
2018-05-13T03:31:16.854Z,18.07
2018-05-13T03:32:16.883Z,18.18
2018-05-13T03:33:16.919Z,18.15
2018-05-13T03:34:16.933Z,18.07
2018-05-13T03:35:16.963Z,18.09
2018-05-13T03:36:16.981Z,18.03
2018-05-13T03:37:17.047Z,18.09
2018-05-13T03:38:17.052Z,18.21
2018-05-13T03:39:17.060Z,18.18
2018-05-13T03:40:17.118Z,18.09
2018-05-13T03:41:17.112Z,18.17
2018-05-13T03:42:17.129Z,18.13
2018-05-13T03:43:17.158Z,18.21
2018-05-13T03:44:17.194Z,18.28
2018-05-13T03:45:17.204Z,18.34
2018-05-13T03:46:17.232Z,18.29
2018-05-13T03:47:17.250Z,18.28
2018-05-13T03:48:17.274Z,18.28
2018-05-13T03:49:17.298Z,18.28
2018-05-13T03:50:17.325Z,18.34
2018-05-13T03:51:17.351Z,18.39
2018-05-13T03:52:17.391Z,18.34
2018-05-13T03:53:17.400Z,18.33
2018-05-13T03:54:17.452Z,18.34
2018-05-13T03:55:17.449Z,18.27
2018-05-13T03:56:17.475Z,18.31
2018-05-13T03:57:17.495Z,18.36
2018-05-13T03:58:17.523Z,18.43
2018-05-13T03:59:17.550Z,18.37
2018-05-13T04:00:17.567Z,18.40
2018-05-13T04:01:17.615Z,18.34
2018-05-13T04:02:17.619Z,18.42
2018-05-13T04:03:17.644Z,18.44
2018-05-13T04:04:17.669Z,18.43
2018-05-13T04:05:17.692Z,18.40
2018-05-13T04:06:17.721Z,18.44
2018-05-13T04:07:17.783Z,18.42
2018-05-13T04:08:17.774Z,18.43
2018-05-13T04:09:17.849Z,18.39
2018-05-13T04:10:17.827Z,18.36
2018-05-13T04:11:17.841Z,18.39
2018-05-13T04:12:17.867Z,18.36
2018-05-13T04:13:17.908Z,18.09
2018-05-13T04:14:17.924Z,17.92
2018-05-13T04:15:17.948Z,18.15
2018-05-13T04:16:17.977Z,17.97
2018-05-13T04:17:17.997Z,17.92
2018-05-13T04:18:18.012Z,18.09
2018-05-13T04:19:18.040Z,18.24
2018-05-13T04:20:18.092Z,18.34
2018-05-13T04:21:18.090Z,18.34
2018-05-13T04:22:18.111Z,18.40
2018-05-13T04:23:18.138Z,18.52
2018-05-13T04:24:18.182Z,18.43
2018-05-13T04:25:18.286Z,18.49
2018-05-13T04:26:18.213Z,18.22
2018-05-13T04:27:18.233Z,18.33
2018-05-13T04:28:18.317Z,18.42
2018-05-13T04:29:18.279Z,18.33
2018-05-13T04:30:18.324Z,18.22
2018-05-13T04:31:18.334Z,18.13
2018-05-13T04:32:18.365Z,18.36
2018-05-13T04:33:18.389Z,18.12
2018-05-13T04:34:18.406Z,18.28
2018-05-13T04:35:18.432Z,18.10
2018-05-13T04:36:18.454Z,18.21
2018-05-13T04:37:18.477Z,18.07
2018-05-13T04:38:18.516Z,18.04
2018-05-13T04:39:18.536Z,18.12
2018-05-13T04:40:18.611Z,18.13
2018-05-13T04:41:18.579Z,18.24
2018-05-13T04:42:18.695Z,18.34
2018-05-13T04:43:18.623Z,18.44
2018-05-13T04:44:18.666Z,18.39
2018-05-13T04:45:18.671Z,18.46
2018-05-13T04:46:18.697Z,18.43
2018-05-13T04:47:18.734Z,18.34
2018-05-13T04:48:18.746Z,18.29
2018-05-13T04:49:18.781Z,18.36
2018-05-13T04:50:18.804Z,18.43
2018-05-13T04:51:18.825Z,18.39
2018-05-13T04:52:18.854Z,18.52
2018-05-13T04:53:18.876Z,18.42
2018-05-13T04:54:18.896Z,18.15
2018-05-13T04:55:18.931Z,18.33
2018-05-13T04:56:18.946Z,18.40
2018-05-13T04:57:18.976Z,18.21
2018-05-13T04:58:18.998Z,18.34
2018-05-13T04:59:19.019Z,18.31
2018-05-13T05:00:19.046Z,18.42
2018-05-13T05:01:19.068Z,18.34
2018-05-13T05:02:19.096Z,18.33
2018-05-13T05:03:19.118Z,18.34
2018-05-13T05:04:19.149Z,18.42
2018-05-13T05:05:19.167Z,18.39
2018-05-13T05:06:19.201Z,18.52
2018-05-13T05:07:19.254Z,18.49
2018-05-13T05:08:19.245Z,18.52
2018-05-13T05:09:19.269Z,18.37
2018-05-13T05:10:19.296Z,18.50
2018-05-13T05:11:19.316Z,18.54
2018-05-13T05:12:19.345Z,18.36
2018-05-13T05:13:19.366Z,18.25
2018-05-13T05:14:19.391Z,18.34
2018-05-13T05:15:19.459Z,18.22
2018-05-13T05:16:19.435Z,18.24
2018-05-13T05:17:19.460Z,18.29
2018-05-13T05:18:19.486Z,18.24
2018-05-13T05:19:19.568Z,18.10
2018-05-13T05:20:19.535Z,18.24
2018-05-13T05:21:19.565Z,18.42
2018-05-13T05:22:19.591Z,18.31
2018-05-13T05:23:19.608Z,18.28
2018-05-13T05:24:19.638Z,17.99
2018-05-13T05:25:19.661Z,18.12
2018-05-13T05:26:19.684Z,18.13
2018-05-13T05:27:19.711Z,18.07
2018-05-13T05:28:19.735Z,17.97
2018-05-13T05:29:19.765Z,18.06
2018-05-13T05:30:19.785Z,18.24
2018-05-13T05:31:19.810Z,18.39
2018-05-13T05:32:19.846Z,18.42
2018-05-13T05:33:19.860Z,18.22
2018-05-13T05:34:19.883Z,18.10
2018-05-13T05:35:19.906Z,18.17
2018-05-13T05:36:19.931Z,18.15
2018-05-13T05:37:19.960Z,18.25
2018-05-13T05:38:19.985Z,18.37
2018-05-13T05:39:20.004Z,18.19
2018-05-13T05:40:20.024Z,18.34
2018-05-13T05:41:20.062Z,18.31
2018-05-13T05:42:20.081Z,18.24
2018-05-13T05:43:20.103Z,18.19
2018-05-13T05:44:20.126Z,18.22
2018-05-13T05:45:20.153Z,18.03
2018-05-13T05:46:20.182Z,17.92
2018-05-13T05:47:20.204Z,17.85
2018-05-13T05:48:20.317Z,18.02
2018-05-13T05:49:20.252Z,18.13
2018-05-13T05:50:20.276Z,18.29
2018-05-13T05:51:20.303Z,18.36
2018-05-13T05:52:20.330Z,18.21
2018-05-13T05:53:20.348Z,18.24
2018-05-13T05:54:20.387Z,18.21
2018-05-13T05:55:20.401Z,18.31
2018-05-13T05:56:20.460Z,18.31
2018-05-13T05:57:20.480Z,18.27
2018-05-13T05:58:20.490Z,18.10
2018-05-13T05:59:20.533Z,17.88
2018-05-13T06:00:20.554Z,18.04
2018-05-13T06:01:20.647Z,17.76
2018-05-13T06:02:20.601Z,17.88
2018-05-13T06:03:20.690Z,18.12
2018-05-13T06:04:20.642Z,18.17
2018-05-13T06:05:20.654Z,18.06
2018-05-13T06:06:20.669Z,17.84
2018-05-13T06:07:20.692Z,17.95
2018-05-13T06:08:20.722Z,18.03
2018-05-13T06:09:20.744Z,18.00
2018-05-13T06:10:20.767Z,17.81
2018-05-13T06:11:20.799Z,17.97
2018-05-13T06:12:20.853Z,18.06
2018-05-13T06:13:20.845Z,18.18
2018-05-13T06:14:20.861Z,18.04
2018-05-13T06:15:20.900Z,18.02
2018-05-13T06:16:20.915Z,18.10
2018-05-13T06:17:20.940Z,18.21
2018-05-13T06:18:20.961Z,18.36
2018-05-13T06:19:20.991Z,18.42
2018-05-13T06:20:21.014Z,18.33
2018-05-13T06:21:21.124Z,18.21
2018-05-13T06:22:21.072Z,18.39
2018-05-13T06:23:21.098Z,18.36
2018-05-13T06:24:21.113Z,18.31
2018-05-13T06:25:21.235Z,18.29
2018-05-13T06:26:21.163Z,18.25
2018-05-13T06:27:21.188Z,18.37
2018-05-13T06:28:21.213Z,18.34
2018-05-13T06:29:21.236Z,18.33
2018-05-13T06:30:21.307Z,18.27
2018-05-13T06:31:21.285Z,18.21
2018-05-13T06:32:21.310Z,18.37
2018-05-13T06:33:21.334Z,18.17
2018-05-13T06:34:21.385Z,18.17
2018-05-13T06:35:21.381Z,18.34
2018-05-13T06:36:21.413Z,18.29
2018-05-13T06:37:21.435Z,18.57
2018-05-13T06:38:21.456Z,18.43
2018-05-13T06:39:21.483Z,18.44
2018-05-13T06:40:21.514Z,18.42
2018-05-13T06:41:21.526Z,18.42
2018-05-13T06:42:21.556Z,18.15
2018-05-13T06:43:21.585Z,18.02
2018-05-13T06:44:21.607Z,18.09
2018-05-13T06:45:21.672Z,18.12
2018-05-13T06:46:21.659Z,18.22
2018-05-13T06:47:21.679Z,18.21
2018-05-13T06:48:21.707Z,18.13
2018-05-13T06:49:21.735Z,18.03
2018-05-13T06:50:21.750Z,17.94
2018-05-13T06:51:21.917Z,17.85
2018-05-13T06:52:21.807Z,18.09
2018-05-13T06:53:21.825Z,18.34
2018-05-13T06:54:21.850Z,18.37
2018-05-13T06:55:21.884Z,18.34
2018-05-13T06:56:21.898Z,18.06
2018-05-13T06:57:22.029Z,18.02
2018-05-13T06:58:21.952Z,17.84
2018-05-13T06:59:21.974Z,17.78
2018-05-13T07:00:22.012Z,17.78
2018-05-13T07:01:22.031Z,18.00
2018-05-13T07:02:22.040Z,17.89
2018-05-13T07:03:22.073Z,18.03
2018-05-13T07:04:22.105Z,18.10
2018-05-13T07:05:22.120Z,18.10
2018-05-13T07:06:22.217Z,18.04
2018-05-13T07:07:22.169Z,17.89
2018-05-13T07:08:22.194Z,17.85
2018-05-13T07:09:22.224Z,17.82
2018-05-13T07:10:22.288Z,18.06
2018-05-13T07:11:22.268Z,18.04
2018-05-13T07:12:22.305Z,18.13
2018-05-13T07:13:22.315Z,18.07
2018-05-13T07:14:22.360Z,18.03
2018-05-13T07:15:22.372Z,18.12
2018-05-13T07:16:22.409Z,18.03
2018-05-13T07:17:22.434Z,17.81
2018-05-13T07:18:22.439Z,17.79
2018-05-13T07:19:22.470Z,17.81
2018-05-13T07:20:22.504Z,17.87
2018-05-13T07:21:22.589Z,17.82
2018-05-13T07:22:22.540Z,17.92
2018-05-13T07:23:22.629Z,18.00
2018-05-13T07:24:22.587Z,17.94
2018-05-13T07:25:22.614Z,17.88
2018-05-13T07:26:22.639Z,17.94
2018-05-13T07:27:22.659Z,18.17
2018-05-13T07:28:22.691Z,18.02
2018-05-13T07:29:22.763Z,17.78
2018-05-13T07:30:22.732Z,17.81
2018-05-13T07:31:22.779Z,17.97
2018-05-13T07:32:22.785Z,17.99
2018-05-13T07:33:22.808Z,18.03
2018-05-13T07:34:22.835Z,18.06
2018-05-13T07:35:22.855Z,18.04
2018-05-13T07:36:22.887Z,17.88
2018-05-13T07:37:22.910Z,18.06
2018-05-13T07:38:22.936Z,18.10
2018-05-13T07:39:22.956Z,17.91
2018-05-13T07:40:23.001Z,17.79
2018-05-13T07:41:23.009Z,17.79
2018-05-13T07:42:23.032Z,17.79
2018-05-13T07:43:23.055Z,17.78
2018-05-13T07:44:23.098Z,17.84
2018-05-13T07:45:23.114Z,17.63
2018-05-13T07:46:23.126Z,17.82
2018-05-13T07:47:23.149Z,17.62
2018-05-13T07:48:23.181Z,17.67
2018-05-13T07:49:23.226Z,17.84
2018-05-13T07:50:23.226Z,17.95
2018-05-13T07:51:23.250Z,17.85
2018-05-13T07:52:23.281Z,17.78
2018-05-13T07:53:23.294Z,17.66
2018-05-13T07:54:23.321Z,17.73
2018-05-13T07:55:23.349Z,17.79
2018-05-13T07:56:23.373Z,17.57
2018-05-13T07:57:23.400Z,17.57
2018-05-13T07:58:23.426Z,17.69
2018-05-13T07:59:23.482Z,17.67
2018-05-13T08:00:23.482Z,17.64
2018-05-13T08:01:23.491Z,17.71
2018-05-13T08:02:23.524Z,17.81
2018-05-13T08:03:23.550Z,17.79
2018-05-13T08:04:23.568Z,18.15
2018-05-13T08:05:23.595Z,18.17
2018-05-13T08:06:23.618Z,18.40
2018-05-13T08:07:23.643Z,18.29
2018-05-13T08:08:23.669Z,18.17
2018-05-13T08:09:23.691Z,18.06
2018-05-13T08:10:23.757Z,17.97
2018-05-13T08:11:23.746Z,18.06
2018-05-13T08:12:23.803Z,18.02
2018-05-13T08:13:23.793Z,18.02
2018-05-13T08:14:23.812Z,17.81
2018-05-13T08:15:23.842Z,17.82
2018-05-13T08:16:23.862Z,17.94
2018-05-13T08:17:23.888Z,17.95
2018-05-13T08:18:23.915Z,17.97
2018-05-13T08:19:23.967Z,18.00
2018-05-13T08:20:24.071Z,18.21
2018-05-13T08:21:23.991Z,18.17
2018-05-13T08:22:24.010Z,18.29
2018-05-13T08:23:24.038Z,18.40
2018-05-13T08:24:24.123Z,18.27
2018-05-13T08:25:24.105Z,18.36
2018-05-13T08:26:24.110Z,18.15
2018-05-13T08:27:24.129Z,18.22
2018-05-13T08:28:24.161Z,18.39
2018-05-13T08:29:24.186Z,18.31
2018-05-13T08:30:24.208Z,18.39
2018-05-13T08:31:24.230Z,18.33
2018-05-13T08:32:24.256Z,18.46
2018-05-13T08:33:24.280Z,18.47
2018-05-13T08:34:24.306Z,18.39
2018-05-13T08:35:24.328Z,18.42
2018-05-13T08:36:24.357Z,18.33
2018-05-13T08:37:24.377Z,18.52
2018-05-13T08:38:24.406Z,18.34
2018-05-13T08:39:24.431Z,18.09
2018-05-13T08:40:24.451Z,18.00
2018-05-13T08:41:24.494Z,18.13
2018-05-13T08:42:24.502Z,17.81
2018-05-13T08:43:24.531Z,17.81
2018-05-13T08:44:24.562Z,17.94
2018-05-13T08:45:24.574Z,18.00
2018-05-13T08:46:24.598Z,18.21
2018-05-13T08:47:24.652Z,18.09
2018-05-13T08:48:24.745Z,17.87
2018-05-13T08:49:24.676Z,17.91
2018-05-13T08:50:24.696Z,17.78
2018-05-13T08:51:24.722Z,17.81
2018-05-13T08:52:24.745Z,17.82
2018-05-13T08:53:24.775Z,17.84
2018-05-13T08:54:24.818Z,18.00
2018-05-13T08:55:24.823Z,17.94
2018-05-13T08:56:24.852Z,17.92
2018-05-13T08:57:24.881Z,17.64
2018-05-13T08:58:24.906Z,17.74
2018-05-13T08:59:24.928Z,18.03
2018-05-13T09:00:24.938Z,18.00
2018-05-13T09:01:24.969Z,17.76
2018-05-13T09:02:24.993Z,17.81
2018-05-13T09:03:25.013Z,17.97
2018-05-13T09:04:25.042Z,17.91
2018-05-13T09:05:25.065Z,17.64
2018-05-13T09:06:25.086Z,17.63
2018-05-13T09:07:25.112Z,17.29
2018-05-13T09:08:25.199Z,17.33
2018-05-13T09:09:25.166Z,17.14
2018-05-13T09:10:25.193Z,17.15
2018-05-13T09:11:25.218Z,17.13
2018-05-13T09:12:25.236Z,17.32
2018-05-13T09:13:25.267Z,17.43
2018-05-13T09:14:25.368Z,17.14
2018-05-13T09:15:25.307Z,16.95
2018-05-13T09:16:25.338Z,16.96
2018-05-13T09:17:25.363Z,17.06
2018-05-13T09:18:25.392Z,16.99
2018-05-13T09:19:25.418Z,17.15
2018-05-13T09:20:25.432Z,16.92
2018-05-13T09:21:25.457Z,16.93
2018-05-13T09:22:25.481Z,16.90
2018-05-13T09:23:25.517Z,16.98
2018-05-13T09:24:25.539Z,16.98
2018-05-13T09:25:25.559Z,17.13
2018-05-13T09:26:25.575Z,17.18
2018-05-13T09:27:25.634Z,16.96
2018-05-13T09:28:25.628Z,16.95
2018-05-13T09:29:25.651Z,16.92
2018-05-13T09:30:25.678Z,16.93
2018-05-13T09:31:25.704Z,16.89
2018-05-13T09:32:25.725Z,17.13
2018-05-13T09:33:25.750Z,17.20
2018-05-13T09:34:25.775Z,17.23
2018-05-13T09:35:25.796Z,17.25
2018-05-13T09:36:25.826Z,17.30
2018-05-13T09:37:25.847Z,17.29
2018-05-13T09:38:25.868Z,17.26
2018-05-13T09:39:25.926Z,17.17
2018-05-13T09:40:25.918Z,17.29
2018-05-13T09:41:25.941Z,17.32
2018-05-13T09:42:25.984Z,17.43
2018-05-13T09:43:26.018Z,17.40
2018-05-13T09:44:26.009Z,17.43
2018-05-13T09:45:26.041Z,17.55
2018-05-13T09:46:26.067Z,17.48
2018-05-13T09:47:26.083Z,16.98
2018-05-13T09:48:26.152Z,16.89
2018-05-13T09:49:26.130Z,16.93
2018-05-13T09:50:26.155Z,16.63
2018-05-13T09:51:26.184Z,16.50
2018-05-13T09:52:26.220Z,16.45
2018-05-13T09:53:26.233Z,16.49
2018-05-13T09:54:26.358Z,16.52
2018-05-13T09:55:26.283Z,16.44
2018-05-13T09:56:26.297Z,16.56
2018-05-13T09:57:26.327Z,16.65
2018-05-13T09:58:26.371Z,16.58
2018-05-13T09:59:26.410Z,16.81
2018-05-13T10:00:26.401Z,16.77
2018-05-13T10:01:26.433Z,16.92
2018-05-13T10:02:26.440Z,16.59
2018-05-13T10:03:26.564Z,16.58
2018-05-13T10:04:26.489Z,16.44
2018-05-13T10:05:26.528Z,16.45
2018-05-13T10:06:26.550Z,16.65
2018-05-13T10:07:26.561Z,16.55
2018-05-13T10:08:26.597Z,16.48
2018-05-13T10:09:26.617Z,16.35
2018-05-13T10:10:26.648Z,16.55
2018-05-13T10:11:26.659Z,16.55
2018-05-13T10:12:26.690Z,16.67
2018-05-13T10:13:26.706Z,16.63
2018-05-13T10:14:26.732Z,16.16
2018-05-13T10:15:26.754Z,16.22
2018-05-13T10:16:26.778Z,16.33
2018-05-13T10:17:26.807Z,16.49
2018-05-13T10:18:26.842Z,16.52
2018-05-13T10:19:26.878Z,16.49
2018-05-13T10:20:26.878Z,16.59
2018-05-13T10:21:26.899Z,16.53
2018-05-13T10:22:26.929Z,16.44
2018-05-13T10:23:26.953Z,16.48
2018-05-13T10:24:26.976Z,16.41
2018-05-13T10:25:27.023Z,16.22
2018-05-13T10:26:27.021Z,15.99
2018-05-13T10:27:27.043Z,16.04
2018-05-13T10:28:27.144Z,16.09
2018-05-13T10:29:27.123Z,15.99
2018-05-13T10:30:27.112Z,16.26
2018-05-13T10:31:27.131Z,16.48
2018-05-13T10:32:27.159Z,16.52
2018-05-13T10:33:27.202Z,16.50
2018-05-13T10:34:27.212Z,16.18
2018-05-13T10:35:27.232Z,16.14
2018-05-13T10:36:27.309Z,16.31
2018-05-13T10:37:27.281Z,16.14
2018-05-13T10:38:27.305Z,16.09
2018-05-13T10:39:27.326Z,16.31
2018-05-13T10:40:27.348Z,16.59
2018-05-13T10:41:27.375Z,16.58
2018-05-13T10:42:27.401Z,16.80
2018-05-13T10:43:27.417Z,16.70
2018-05-13T10:44:27.443Z,16.60
2018-05-13T10:45:27.464Z,16.56
2018-05-13T10:46:27.504Z,16.60
2018-05-13T10:47:27.508Z,16.49
2018-05-13T10:48:27.536Z,16.40
2018-05-13T10:49:27.558Z,16.23
2018-05-13T10:50:27.584Z,16.33
2018-05-13T10:51:27.608Z,16.33
2018-05-13T10:52:27.629Z,16.30
2018-05-13T10:53:27.656Z,16.45
2018-05-13T10:54:27.677Z,16.55
2018-05-13T10:55:27.698Z,16.41
2018-05-13T10:56:27.725Z,16.60
2018-05-13T10:57:27.752Z,16.49
2018-05-13T10:58:27.772Z,16.12
2018-05-13T10:59:27.794Z,15.99
2018-05-13T11:00:27.822Z,16.15
2018-05-13T11:01:27.846Z,16.20
2018-05-13T11:02:27.870Z,16.27
2018-05-13T11:03:27.892Z,16.52
2018-05-13T11:04:27.915Z,16.60
2018-05-13T11:05:27.932Z,16.49
2018-05-13T11:06:27.962Z,16.27
2018-05-13T11:07:27.986Z,15.89
2018-05-13T11:08:28.009Z,15.82
2018-05-13T11:09:28.044Z,15.99
2018-05-13T11:10:28.053Z,15.68
2018-05-13T11:11:28.084Z,15.57
2018-05-13T11:12:28.112Z,15.76
2018-05-13T11:13:28.126Z,15.86
2018-05-13T11:14:28.151Z,15.92
2018-05-13T11:15:28.177Z,16.07
2018-05-13T11:16:28.199Z,15.99
2018-05-13T11:17:28.216Z,15.94
2018-05-13T11:18:28.275Z,16.11
2018-05-13T11:19:28.271Z,16.06
2018-05-13T11:20:28.292Z,16.27
2018-05-13T11:21:28.313Z,15.93
2018-05-13T11:22:28.340Z,15.92
2018-05-13T11:23:28.357Z,15.94
2018-05-13T11:24:28.456Z,16.00
2018-05-13T11:25:28.411Z,16.31
2018-05-13T11:26:28.432Z,16.00
2018-05-13T11:27:28.454Z,15.89
2018-05-13T11:28:28.479Z,16.06
2018-05-13T11:29:28.496Z,16.16
2018-05-13T11:30:28.523Z,16.33
2018-05-13T11:31:28.557Z,16.31
2018-05-13T11:32:28.574Z,15.89
2018-05-13T11:33:28.600Z,15.75
2018-05-13T11:34:28.633Z,15.63
2018-05-13T11:35:28.646Z,15.42
2018-05-13T11:36:28.665Z,15.51
2018-05-13T11:37:28.688Z,15.66
2018-05-13T11:38:28.723Z,15.82
2018-05-13T11:39:28.735Z,15.94
2018-05-13T11:40:28.759Z,16.09
2018-05-13T11:41:28.784Z,16.25
2018-05-13T11:42:28.804Z,16.09
2018-05-13T11:43:28.838Z,15.86
2018-05-13T11:44:28.855Z,15.84
2018-05-13T11:45:28.874Z,15.78
2018-05-13T11:46:28.899Z,15.86
2018-05-13T11:47:28.923Z,15.81
2018-05-13T11:48:28.946Z,15.70
2018-05-13T11:49:28.966Z,15.78
2018-05-13T11:50:28.993Z,15.78
2018-05-13T11:51:29.015Z,16.04
2018-05-13T11:52:29.040Z,16.06
2018-05-13T11:53:29.063Z,16.03
2018-05-13T11:54:29.082Z,15.89
2018-05-13T11:55:29.106Z,15.99
2018-05-13T11:56:29.215Z,15.68
2018-05-13T11:57:29.154Z,15.74
2018-05-13T11:58:29.188Z,16.00
2018-05-13T11:59:29.198Z,16.04
2018-05-13T12:00:29.220Z,16.16
2018-05-13T12:01:29.243Z,15.89
2018-05-13T12:02:29.298Z,15.94
2018-05-13T12:03:29.297Z,15.94
2018-05-13T12:04:29.313Z,15.97
2018-05-13T12:05:29.341Z,16.11
2018-05-13T12:06:29.357Z,15.89
2018-05-13T12:07:29.413Z,15.82
2018-05-13T12:08:29.415Z,15.60
2018-05-13T12:09:29.437Z,15.74
2018-05-13T12:10:29.457Z,15.81
2018-05-13T12:11:29.482Z,15.82
2018-05-13T12:12:29.498Z,15.81
2018-05-13T12:13:29.550Z,15.76
2018-05-13T12:14:29.541Z,15.76
2018-05-13T12:15:29.578Z,15.94
2018-05-13T12:16:29.588Z,15.89
2018-05-13T12:17:29.639Z,15.82
2018-05-13T12:18:29.659Z,15.92
2018-05-13T12:19:29.681Z,15.85
2018-05-13T12:20:29.686Z,15.72
2018-05-13T12:21:29.706Z,15.70
2018-05-13T12:22:29.734Z,15.43
2018-05-13T12:23:29.782Z,15.49
2018-05-13T12:24:29.788Z,15.74
2018-05-13T12:25:29.801Z,15.52
2018-05-13T12:26:29.826Z,15.75
2018-05-13T12:27:29.864Z,15.86
2018-05-13T12:28:29.876Z,16.03
2018-05-13T12:29:29.892Z,16.09
2018-05-13T12:30:29.921Z,15.93
2018-05-13T12:31:29.961Z,15.92
2018-05-13T12:32:29.962Z,16.03
2018-05-13T12:33:29.984Z,15.99
2018-05-13T12:34:30.020Z,15.99
2018-05-13T12:35:30.043Z,15.89
2018-05-13T12:36:30.060Z,15.78
2018-05-13T12:37:30.080Z,15.85
2018-05-13T12:38:30.103Z,15.76
2018-05-13T12:39:30.121Z,15.60
2018-05-13T12:40:30.164Z,15.61
2018-05-13T12:41:30.177Z,15.49
2018-05-13T12:42:30.195Z,15.36
2018-05-13T12:43:30.220Z,15.59
2018-05-13T12:44:30.237Z,15.49
2018-05-13T12:45:30.260Z,15.59
2018-05-13T12:46:30.310Z,15.70
2018-05-13T12:47:30.382Z,15.74
2018-05-13T12:48:30.332Z,15.86
2018-05-13T12:49:30.375Z,15.96
2018-05-13T12:50:30.378Z,15.94
2018-05-13T12:51:30.395Z,15.86
2018-05-13T12:52:30.425Z,15.70